sensor_id;sensor_type;location;lat;lon;timestamp;P1;durP1;ratioP1;P2;durP2;ratioP2
57822;SDS011;43650;48.064;20.624;2023-03-01T00:00:49;15.13;;;7.27;;
57822;SDS011;43650;48.064;20.624;2023-03-01T00:01:50;14.53;;;6.57;;
57822;SDS011;43650;48.064;20.624;2023-03-01T00:02:50;11.63;;;6.70;;
57822;SDS011;43650;48.064;20.624;2023-03-01T00:03:51;15.70;;;7.07;;
57822;SDS011;43650;48.064;20.624;2023-03-01T00:04:52;12.23;;;6.80;;
57822;SDS011;43650;48.064;20.624;2023-03-01T00:05:52;11.63;;;6.03;;
57822;SDS011;43650;48.064;20.624;2023-03-01T00:06:53;17.00;;;9.53;;
57822;SDS011;43650;48.064;20.624;2023-03-01T00:07:53;14.80;;;8.88;;
57822;SDS011;43650;48.064;20.624;2023-03-01T00:08:54;16.60;;;7.87;;
57822;SDS011;43650;48.064;20.624;2023-03-01T00:09:54;12.50;;;6.20;;
57822;SDS011;43650;48.064;20.624;2023-03-01T00:12:08;11.15;;;6.47;;
57822;SDS011;43650;48.064;20.624;2023-03-01T00:13:09;10.85;;;6.30;;
57822;SDS011;43650;48.064;20.624;2023-03-01T00:14:10;14.73;;;8.03;;
57822;SDS011;43650;48.064;20.624;2023-03-01T00:15:10;13.20;;;7.20;;
57822;SDS011;43650;48.064;20.624;2023-03-01T00:16:13;19.30;;;10.73;;
57822;SDS011;43650;48.064;20.624;2023-03-01T00:17:15;23.77;;;11.10;;
57822;SDS011;43650;48.064;20.624;2023-03-01T00:18:16;15.75;;;8.60;;
57822;SDS011;43650;48.064;20.624;2023-03-01T00:19:18;13.07;;;6.93;;
57822;SDS011;43650;48.064;20.624;2023-03-01T00:20:19;57.55;;;23.20;;
57822;SDS011;43650;48.064;20.624;2023-03-01T00:21:20;53.07;;;21.83;;
57822;SDS011;43650;48.064;20.624;2023-03-01T00:22:22;15.98;;;8.75;;
57822;SDS011;43650;48.064;20.624;2023-03-01T00:23:23;9.80;;;5.00;;
57822;SDS011;43650;48.064;20.624;2023-03-01T00:24:24;11.60;;;5.40;;
57822;SDS011;43650;48.064;20.624;2023-03-01T00:25:24;12.63;;;5.50;;
57822;SDS011;43650;48.064;20.624;2023-03-01T00:26:25;8.80;;;5.20;;
57822;SDS011;43650;48.064;20.624;2023-03-01T00:27:26;10.57;;;4.93;;
57822;SDS011;43650;48.064;20.624;2023-03-01T00:28:26;13.27;;;5.50;;
57822;SDS011;43650;48.064;20.624;2023-03-01T00:29:27;8.63;;;4.90;;
57822;SDS011;43650;48.064;20.624;2023-03-01T00:30:27;10.80;;;4.93;;
57822;SDS011;43650;48.064;20.624;2023-03-01T00:31:28;7.83;;;4.77;;
57822;SDS011;43650;48.064;20.624;2023-03-01T00:32:30;11.75;;;5.00;;
57822;SDS011;43650;48.064;20.624;2023-03-01T00:33:31;7.20;;;4.10;;
57822;SDS011;43650;48.064;20.624;2023-03-01T00:34:31;8.20;;;4.43;;
57822;SDS011;43650;48.064;20.624;2023-03-01T00:35:32;9.70;;;4.60;;
57822;SDS011;43650;48.064;20.624;2023-03-01T00:36:34;9.52;;;4.80;;
57822;SDS011;43650;48.064;20.624;2023-03-01T00:37:36;11.52;;;5.32;;
57822;SDS011;43650;48.064;20.624;2023-03-01T00:38:37;9.70;;;4.90;;
57822;SDS011;43650;48.064;20.624;2023-03-01T00:39:39;9.98;;;5.07;;
57822;SDS011;43650;48.064;20.624;2023-03-01T00:40:39;12.10;;;4.90;;
57822;SDS011;43650;48.064;20.624;2023-03-01T00:41:40;9.33;;;5.43;;
57822;SDS011;43650;48.064;20.624;2023-03-01T00:42:40;12.40;;;5.43;;
57822;SDS011;43650;48.064;20.624;2023-03-01T00:43:41;8.80;;;5.20;;
57822;SDS011;43650;48.064;20.624;2023-03-01T00:44:42;8.65;;;4.90;;
57822;SDS011;43650;48.064;20.624;2023-03-01T00:45:42;10.90;;;5.83;;
57822;SDS011;43650;48.064;20.624;2023-03-01T00:46:43;9.63;;;5.35;;
57822;SDS011;43650;48.064;20.624;2023-03-01T00:47:44;10.23;;;5.70;;
57822;SDS011;43650;48.064;20.624;2023-03-01T00:48:44;9.77;;;6.03;;
57822;SDS011;43650;48.064;20.624;2023-03-01T00:49:45;10.98;;;5.62;;
57822;SDS011;43650;48.064;20.624;2023-03-01T00:50:45;12.00;;;5.07;;
57822;SDS011;43650;48.064;20.624;2023-03-01T00:51:46;7.27;;;4.40;;
57822;SDS011;43650;48.064;20.624;2023-03-01T00:52:46;9.77;;;4.30;;
57822;SDS011;43650;48.064;20.624;2023-03-01T00:53:47;8.33;;;4.80;;
57822;SDS011;43650;48.064;20.624;2023-03-01T00:54:47;8.30;;;4.12;;
57822;SDS011;43650;48.064;20.624;2023-03-01T00:55:48;11.53;;;4.50;;
57822;SDS011;43650;48.064;20.624;2023-03-01T00:56:48;10.60;;;4.90;;
57822;SDS011;43650;48.064;20.624;2023-03-01T00:57:49;10.47;;;4.33;;
57822;SDS011;43650;48.064;20.624;2023-03-01T00:58:49;12.37;;;5.73;;
57822;SDS011;43650;48.064;20.624;2023-03-01T00:59:51;9.55;;;5.05;;
57822;SDS011;43650;48.064;20.624;2023-03-01T01:00:54;9.23;;;4.40;;
57822;SDS011;43650;48.064;20.624;2023-03-01T01:01:55;7.90;;;4.73;;
57822;SDS011;43650;48.064;20.624;2023-03-01T01:02:55;11.03;;;4.93;;
57822;SDS011;43650;48.064;20.624;2023-03-01T01:03:57;10.60;;;4.53;;
57822;SDS011;43650;48.064;20.624;2023-03-01T01:04:59;8.35;;;4.95;;
57822;SDS011;43650;48.064;20.624;2023-03-01T01:06:00;8.50;;;4.87;;
57822;SDS011;43650;48.064;20.624;2023-03-01T01:07:09;7.70;;;4.62;;
57822;SDS011;43650;48.064;20.624;2023-03-01T01:08:09;9.03;;;3.90;;
57822;SDS011;43650;48.064;20.624;2023-03-01T01:09:11;6.80;;;3.60;;
57822;SDS011;43650;48.064;20.624;2023-03-01T01:10:17;6.35;;;3.75;;
57822;SDS011;43650;48.064;20.624;2023-03-01T01:11:17;10.97;;;4.13;;
57822;SDS011;43650;48.064;20.624;2023-03-01T01:12:17;10.33;;;3.00;;
57822;SDS011;43650;48.064;20.624;2023-03-01T01:13:18;6.70;;;3.30;;
57822;SDS011;43650;48.064;20.624;2023-03-01T01:14:18;9.87;;;4.27;;
57822;SDS011;43650;48.064;20.624;2023-03-01T01:15:19;7.93;;;4.40;;
57822;SDS011;43650;48.064;20.624;2023-03-01T01:16:20;9.33;;;3.57;;
57822;SDS011;43650;48.064;20.624;2023-03-01T01:17:21;6.87;;;3.70;;
57822;SDS011;43650;48.064;20.624;2023-03-01T01:18:21;7.93;;;4.53;;
57822;SDS011;43650;48.064;20.624;2023-03-01T01:19:22;11.67;;;3.87;;
57822;SDS011;43650;48.064;20.624;2023-03-01T01:20:23;11.02;;;4.68;;
57822;SDS011;43650;48.064;20.624;2023-03-01T01:21:24;6.27;;;4.40;;
57822;SDS011;43650;48.064;20.624;2023-03-01T01:23:25;7.62;;;3.90;;
57822;SDS011;43650;48.064;20.624;2023-03-01T01:24:26;10.40;;;5.33;;
57822;SDS011;43650;48.064;20.624;2023-03-01T01:25:26;8.87;;;3.93;;
57822;SDS011;43650;48.064;20.624;2023-03-01T01:26:28;10.47;;;4.77;;
57822;SDS011;43650;48.064;20.624;2023-03-01T01:27:30;14.27;;;5.57;;
57822;SDS011;43650;48.064;20.624;2023-03-01T01:28:31;12.70;;;5.87;;
57822;SDS011;43650;48.064;20.624;2023-03-01T01:29:32;10.07;;;5.50;;
57822;SDS011;43650;48.064;20.624;2023-03-01T01:30:32;11.80;;;5.73;;
57822;SDS011;43650;48.064;20.624;2023-03-01T01:31:33;12.30;;;6.20;;
57822;SDS011;43650;48.064;20.624;2023-03-01T01:32:34;14.07;;;6.62;;
57822;SDS011;43650;48.064;20.624;2023-03-01T01:33:35;14.37;;;7.00;;
57822;SDS011;43650;48.064;20.624;2023-03-01T01:34:35;13.80;;;6.97;;
57822;SDS011;43650;48.064;20.624;2023-03-01T01:35:36;16.83;;;8.17;;
57822;SDS011;43650;48.064;20.624;2023-03-01T01:36:36;15.13;;;6.50;;
57822;SDS011;43650;48.064;20.624;2023-03-01T01:37:37;12.17;;;5.43;;
57822;SDS011;43650;48.064;20.624;2023-03-01T01:38:37;11.17;;;5.30;;
57822;SDS011;43650;48.064;20.624;2023-03-01T01:39:38;13.80;;;5.07;;
57822;SDS011;43650;48.064;20.624;2023-03-01T01:40:45;11.17;;;4.83;;
57822;SDS011;43650;48.064;20.624;2023-03-01T01:41:46;9.05;;;4.12;;
57822;SDS011;43650;48.064;20.624;2023-03-01T01:42:47;8.40;;;4.15;;
57822;SDS011;43650;48.064;20.624;2023-03-01T01:43:48;9.70;;;5.10;;
57822;SDS011;43650;48.064;20.624;2023-03-01T01:46:30;9.20;;;4.60;;
57822;SDS011;43650;48.064;20.624;2023-03-01T01:47:31;11.32;;;5.62;;
57822;SDS011;43650;48.064;20.624;2023-03-01T01:48:34;9.87;;;4.43;;
57822;SDS011;43650;48.064;20.624;2023-03-01T01:49:43;7.65;;;4.05;;
57822;SDS011;43650;48.064;20.624;2023-03-01T01:50:47;6.65;;;3.50;;
57822;SDS011;43650;48.064;20.624;2023-03-01T01:51:55;7.50;;;3.70;;
57822;SDS011;43650;48.064;20.624;2023-03-01T01:53:09;12.35;;;5.15;;
57822;SDS011;43650;48.064;20.624;2023-03-01T01:54:18;7.65;;;3.65;;
57822;SDS011;43650;48.064;20.624;2023-03-01T01:55:22;6.45;;;3.67;;
57822;SDS011;43650;48.064;20.624;2023-03-01T01:56:24;6.65;;;3.62;;
57822;SDS011;43650;48.064;20.624;2023-03-01T01:57:26;6.28;;;3.85;;
57822;SDS011;43650;48.064;20.624;2023-03-01T01:58:34;9.30;;;4.53;;
57822;SDS011;43650;48.064;20.624;2023-03-01T01:59:34;9.67;;;4.33;;
57822;SDS011;43650;48.064;20.624;2023-03-01T02:00:35;7.28;;;3.75;;
57822;SDS011;43650;48.064;20.624;2023-03-01T02:01:37;6.85;;;3.95;;
57822;SDS011;43650;48.064;20.624;2023-03-01T02:02:37;7.17;;;3.77;;
57822;SDS011;43650;48.064;20.624;2023-03-01T02:03:39;8.35;;;3.85;;
57822;SDS011;43650;48.064;20.624;2023-03-01T02:04:42;7.85;;;4.18;;
57822;SDS011;43650;48.064;20.624;2023-03-01T02:07:15;3.50;;;2.83;;
57822;SDS011;43650;48.064;20.624;2023-03-01T02:08:26;7.60;;;3.12;;
57822;SDS011;43650;48.064;20.624;2023-03-01T02:09:27;5.85;;;3.40;;
57822;SDS011;43650;48.064;20.624;2023-03-01T02:10:28;7.03;;;3.63;;
57822;SDS011;43650;48.064;20.624;2023-03-01T02:11:30;6.70;;;3.55;;
57822;SDS011;43650;48.064;20.624;2023-03-01T02:12:31;6.37;;;3.45;;
57822;SDS011;43650;48.064;20.624;2023-03-01T02:13:32;7.03;;;3.97;;
57822;SDS011;43650;48.064;20.624;2023-03-01T02:14:33;7.45;;;3.65;;
57822;SDS011;43650;48.064;20.624;2023-03-01T02:15:34;7.37;;;3.70;;
57822;SDS011;43650;48.064;20.624;2023-03-01T02:16:35;7.32;;;3.50;;
57822;SDS011;43650;48.064;20.624;2023-03-01T02:17:35;8.50;;;3.43;;
57822;SDS011;43650;48.064;20.624;2023-03-01T02:18:37;9.38;;;3.62;;
57822;SDS011;43650;48.064;20.624;2023-03-01T02:20:51;7.90;;;3.62;;
57822;SDS011;43650;48.064;20.624;2023-03-01T02:22:24;6.60;;;3.35;;
57822;SDS011;43650;48.064;20.624;2023-03-01T02:23:27;6.55;;;3.70;;
57822;SDS011;43650;48.064;20.624;2023-03-01T02:25:39;7.43;;;3.30;;
57822;SDS011;43650;48.064;20.624;2023-03-01T02:26:42;8.80;;;3.87;;
57822;SDS011;43650;48.064;20.624;2023-03-01T02:28:55;9.73;;;3.72;;
57822;SDS011;43650;48.064;20.624;2023-03-01T02:29:56;6.40;;;3.30;;
57822;SDS011;43650;48.064;20.624;2023-03-01T02:30:56;9.67;;;4.03;;
57822;SDS011;43650;48.064;20.624;2023-03-01T02:32:16;7.57;;;3.30;;
57822;SDS011;43650;48.064;20.624;2023-03-01T02:33:25;12.18;;;3.53;;
57822;SDS011;43650;48.064;20.624;2023-03-01T02:34:26;6.53;;;3.80;;
57822;SDS011;43650;48.064;20.624;2023-03-01T02:35:27;8.38;;;3.58;;
57822;SDS011;43650;48.064;20.624;2023-03-01T02:36:29;8.07;;;3.33;;
57822;SDS011;43650;48.064;20.624;2023-03-01T02:37:31;8.57;;;3.72;;
57822;SDS011;43650;48.064;20.624;2023-03-01T02:38:32;6.63;;;4.07;;
57822;SDS011;43650;48.064;20.624;2023-03-01T02:39:42;5.75;;;3.40;;
57822;SDS011;43650;48.064;20.624;2023-03-01T02:40:46;8.80;;;3.20;;
57822;SDS011;43650;48.064;20.624;2023-03-01T02:41:49;8.48;;;4.10;;
57822;SDS011;43650;48.064;20.624;2023-03-01T02:42:53;7.57;;;3.47;;
57822;SDS011;43650;48.064;20.624;2023-03-01T02:43:55;6.10;;;3.42;;
57822;SDS011;43650;48.064;20.624;2023-03-01T02:44:55;8.57;;;4.27;;
57822;SDS011;43650;48.064;20.624;2023-03-01T02:46:04;9.27;;;3.83;;
57822;SDS011;43650;48.064;20.624;2023-03-01T02:47:07;8.07;;;3.40;;
57822;SDS011;43650;48.064;20.624;2023-03-01T02:48:07;12.00;;;3.60;;
57822;SDS011;43650;48.064;20.624;2023-03-01T02:49:49;9.97;;;3.30;;
57822;SDS011;43650;48.064;20.624;2023-03-01T02:51:48;7.28;;;4.00;;
57822;SDS011;43650;48.064;20.624;2023-03-01T02:54:26;13.15;;;4.68;;
57822;SDS011;43650;48.064;20.624;2023-03-01T02:55:28;10.00;;;4.18;;
57822;SDS011;43650;48.064;20.624;2023-03-01T02:56:28;6.27;;;3.13;;
57822;SDS011;43650;48.064;20.624;2023-03-01T02:57:30;7.93;;;3.60;;
57822;SDS011;43650;48.064;20.624;2023-03-01T02:58:31;9.25;;;3.87;;
57822;SDS011;43650;48.064;20.624;2023-03-01T02:59:40;12.18;;;4.45;;
57822;SDS011;43650;48.064;20.624;2023-03-01T03:00:42;5.72;;;3.47;;
57822;SDS011;43650;48.064;20.624;2023-03-01T03:01:46;8.50;;;3.90;;
57822;SDS011;43650;48.064;20.624;2023-03-01T03:02:47;10.33;;;3.70;;
57822;SDS011;43650;48.064;20.624;2023-03-01T03:03:49;9.05;;;3.75;;
57822;SDS011;43650;48.064;20.624;2023-03-01T03:04:49;8.37;;;3.90;;
57822;SDS011;43650;48.064;20.624;2023-03-01T03:05:49;7.50;;;3.70;;
57822;SDS011;43650;48.064;20.624;2023-03-01T03:06:50;8.63;;;3.93;;
57822;SDS011;43650;48.064;20.624;2023-03-01T03:07:51;7.35;;;3.70;;
57822;SDS011;43650;48.064;20.624;2023-03-01T03:08:51;7.07;;;3.97;;
57822;SDS011;43650;48.064;20.624;2023-03-01T03:09:52;6.13;;;2.83;;
57822;SDS011;43650;48.064;20.624;2023-03-01T03:10:52;10.27;;;4.37;;
57822;SDS011;43650;48.064;20.624;2023-03-01T03:11:53;7.33;;;3.67;;
57822;SDS011;43650;48.064;20.624;2023-03-01T03:12:55;6.70;;;3.67;;
57822;SDS011;43650;48.064;20.624;2023-03-01T03:13:59;7.00;;;4.40;;
57822;SDS011;43650;48.064;20.624;2023-03-01T03:14:59;10.03;;;3.67;;
57822;SDS011;43650;48.064;20.624;2023-03-01T03:16:00;7.50;;;3.57;;
57822;SDS011;43650;48.064;20.624;2023-03-01T03:17:02;9.10;;;3.85;;
57822;SDS011;43650;48.064;20.624;2023-03-01T03:18:08;8.43;;;4.68;;
57822;SDS011;43650;48.064;20.624;2023-03-01T03:19:10;9.32;;;4.62;;
57822;SDS011;43650;48.064;20.624;2023-03-01T03:20:12;8.38;;;4.28;;
57822;SDS011;43650;48.064;20.624;2023-03-01T03:21:18;10.57;;;4.30;;
57822;SDS011;43650;48.064;20.624;2023-03-01T03:22:19;7.50;;;4.20;;
57822;SDS011;43650;48.064;20.624;2023-03-01T03:23:20;9.27;;;3.90;;
57822;SDS011;43650;48.064;20.624;2023-03-01T03:24:21;9.55;;;3.95;;
57822;SDS011;43650;48.064;20.624;2023-03-01T03:25:22;5.90;;;3.70;;
57822;SDS011;43650;48.064;20.624;2023-03-01T03:26:22;8.02;;;4.20;;
57822;SDS011;43650;48.064;20.624;2023-03-01T03:27:23;7.85;;;4.15;;
57822;SDS011;43650;48.064;20.624;2023-03-01T03:28:23;6.17;;;3.73;;
57822;SDS011;43650;48.064;20.624;2023-03-01T03:29:24;8.18;;;4.22;;
57822;SDS011;43650;48.064;20.624;2023-03-01T03:30:26;8.53;;;4.73;;
57822;SDS011;43650;48.064;20.624;2023-03-01T03:31:30;9.02;;;4.75;;
57822;SDS011;43650;48.064;20.624;2023-03-01T03:32:30;9.93;;;4.43;;
57822;SDS011;43650;48.064;20.624;2023-03-01T03:33:30;7.37;;;3.60;;
57822;SDS011;43650;48.064;20.624;2023-03-01T03:34:31;6.43;;;3.70;;
57822;SDS011;43650;48.064;20.624;2023-03-01T03:35:32;8.70;;;4.40;;
57822;SDS011;43650;48.064;20.624;2023-03-01T03:36:34;10.30;;;4.37;;
57822;SDS011;43650;48.064;20.624;2023-03-01T03:37:38;8.33;;;4.03;;
57822;SDS011;43650;48.064;20.624;2023-03-01T03:38:58;9.65;;;4.07;;
57822;SDS011;43650;48.064;20.624;2023-03-01T03:39:59;9.97;;;3.80;;
57822;SDS011;43650;48.064;20.624;2023-03-01T03:41:03;6.90;;;3.80;;
57822;SDS011;43650;48.064;20.624;2023-03-01T03:42:05;8.02;;;4.72;;
57822;SDS011;43650;48.064;20.624;2023-03-01T03:43:10;10.07;;;5.13;;
57822;SDS011;43650;48.064;20.624;2023-03-01T03:44:12;10.43;;;4.53;;
57822;SDS011;43650;48.064;20.624;2023-03-01T03:45:13;10.03;;;4.50;;
57822;SDS011;43650;48.064;20.624;2023-03-01T03:46:14;15.23;;;4.62;;
57822;SDS011;43650;48.064;20.624;2023-03-01T03:47:14;9.53;;;5.13;;
57822;SDS011;43650;48.064;20.624;2023-03-01T03:48:15;8.07;;;4.73;;
57822;SDS011;43650;48.064;20.624;2023-03-01T03:49:16;10.35;;;4.70;;
57822;SDS011;43650;48.064;20.624;2023-03-01T03:50:17;10.23;;;4.40;;
57822;SDS011;43650;48.064;20.624;2023-03-01T03:51:18;12.02;;;4.22;;
57822;SDS011;43650;48.064;20.624;2023-03-01T03:52:18;10.07;;;5.12;;
57822;SDS011;43650;48.064;20.624;2023-03-01T03:53:19;17.73;;;5.80;;
57822;SDS011;43650;48.064;20.624;2023-03-01T03:55:21;9.63;;;4.80;;
57822;SDS011;43650;48.064;20.624;2023-03-01T03:56:21;16.33;;;7.37;;
57822;SDS011;43650;48.064;20.624;2023-03-01T03:57:25;11.77;;;5.30;;
57822;SDS011;43650;48.064;20.624;2023-03-01T03:58:26;11.10;;;5.53;;
57822;SDS011;43650;48.064;20.624;2023-03-01T03:59:26;12.43;;;4.63;;
57822;SDS011;43650;48.064;20.624;2023-03-01T04:00:27;17.35;;;6.80;;
57822;SDS011;43650;48.064;20.624;2023-03-01T04:01:28;15.27;;;7.07;;
57822;SDS011;43650;48.064;20.624;2023-03-01T04:02:28;16.77;;;6.53;;
57822;SDS011;43650;48.064;20.624;2023-03-01T04:03:29;17.00;;;6.57;;
57822;SDS011;43650;48.064;20.624;2023-03-01T04:04:30;12.43;;;5.85;;
57822;SDS011;43650;48.064;20.624;2023-03-01T04:05:31;11.90;;;5.70;;
57822;SDS011;43650;48.064;20.624;2023-03-01T04:06:31;11.33;;;5.23;;
57822;SDS011;43650;48.064;20.624;2023-03-01T04:07:31;12.30;;;5.20;;
57822;SDS011;43650;48.064;20.624;2023-03-01T04:08:32;8.60;;;4.63;;
57822;SDS011;43650;48.064;20.624;2023-03-01T04:09:32;11.07;;;5.43;;
57822;SDS011;43650;48.064;20.624;2023-03-01T04:10:34;8.83;;;5.13;;
57822;SDS011;43650;48.064;20.624;2023-03-01T04:11:36;13.15;;;6.95;;
57822;SDS011;43650;48.064;20.624;2023-03-01T04:12:38;38.83;;;15.90;;
57822;SDS011;43650;48.064;20.624;2023-03-01T04:13:38;31.63;;;14.53;;
57822;SDS011;43650;48.064;20.624;2023-03-01T04:14:39;36.97;;;15.80;;
57822;SDS011;43650;48.064;20.624;2023-03-01T04:15:40;45.50;;;17.53;;
57822;SDS011;43650;48.064;20.624;2023-03-01T04:16:40;62.72;;;24.40;;
57822;SDS011;43650;48.064;20.624;2023-03-01T04:17:41;57.87;;;21.50;;
57822;SDS011;43650;48.064;20.624;2023-03-01T04:18:43;46.13;;;21.15;;
57822;SDS011;43650;48.064;20.624;2023-03-01T04:19:44;40.80;;;16.87;;
57822;SDS011;43650;48.064;20.624;2023-03-01T04:20:48;38.05;;;15.38;;
57822;SDS011;43650;48.064;20.624;2023-03-01T04:21:51;47.65;;;20.90;;
57822;SDS011;43650;48.064;20.624;2023-03-01T04:22:56;52.90;;;19.50;;
57822;SDS011;43650;48.064;20.624;2023-03-01T04:23:57;38.25;;;17.15;;
57822;SDS011;43650;48.064;20.624;2023-03-01T04:24:58;43.13;;;19.17;;
57822;SDS011;43650;48.064;20.624;2023-03-01T04:26:06;42.15;;;18.33;;
57822;SDS011;43650;48.064;20.624;2023-03-01T04:27:06;37.97;;;14.30;;
57822;SDS011;43650;48.064;20.624;2023-03-01T04:28:07;49.27;;;19.77;;
57822;SDS011;43650;48.064;20.624;2023-03-01T04:29:08;49.17;;;21.20;;
57822;SDS011;43650;48.064;20.624;2023-03-01T04:30:09;41.70;;;18.77;;
57822;SDS011;43650;48.064;20.624;2023-03-01T04:31:11;41.28;;;17.77;;
57822;SDS011;43650;48.064;20.624;2023-03-01T04:32:13;39.00;;;16.10;;
57822;SDS011;43650;48.064;20.624;2023-03-01T04:33:16;32.85;;;15.60;;
57822;SDS011;43650;48.064;20.624;2023-03-01T04:34:16;25.53;;;11.93;;
57822;SDS011;43650;48.064;20.624;2023-03-01T04:35:17;23.17;;;12.60;;
57822;SDS011;43650;48.064;20.624;2023-03-01T04:36:17;20.83;;;12.10;;
57822;SDS011;43650;48.064;20.624;2023-03-01T04:38:19;14.07;;;7.37;;
57822;SDS011;43650;48.064;20.624;2023-03-01T04:39:22;12.63;;;7.70;;
57822;SDS011;43650;48.064;20.624;2023-03-01T04:40:23;16.57;;;8.53;;
57822;SDS011;43650;48.064;20.624;2023-03-01T04:41:24;13.80;;;8.37;;
57822;SDS011;43650;48.064;20.624;2023-03-01T04:42:25;13.35;;;8.55;;
57822;SDS011;43650;48.064;20.624;2023-03-01T04:43:25;14.57;;;7.10;;
57822;SDS011;43650;48.064;20.624;2023-03-01T04:44:26;15.00;;;7.50;;
57822;SDS011;43650;48.064;20.624;2023-03-01T04:45:26;15.30;;;7.90;;
57822;SDS011;43650;48.064;20.624;2023-03-01T04:46:27;13.07;;;6.90;;
57822;SDS011;43650;48.064;20.624;2023-03-01T04:47:28;14.73;;;7.67;;
57822;SDS011;43650;48.064;20.624;2023-03-01T04:48:28;14.87;;;7.63;;
57822;SDS011;43650;48.064;20.624;2023-03-01T04:50:31;16.58;;;7.45;;
57822;SDS011;43650;48.064;20.624;2023-03-01T04:51:31;25.40;;;10.17;;
57822;SDS011;43650;48.064;20.624;2023-03-01T04:52:35;23.23;;;9.27;;
57822;SDS011;43650;48.064;20.624;2023-03-01T04:53:35;23.80;;;11.90;;
57822;SDS011;43650;48.064;20.624;2023-03-01T04:54:38;20.88;;;9.75;;
57822;SDS011;43650;48.064;20.624;2023-03-01T04:55:39;13.27;;;5.63;;
57822;SDS011;43650;48.064;20.624;2023-03-01T04:56:39;11.97;;;5.40;;
57822;SDS011;43650;48.064;20.624;2023-03-01T04:57:40;14.17;;;6.97;;
57822;SDS011;43650;48.064;20.624;2023-03-01T04:58:41;15.73;;;7.47;;
57822;SDS011;43650;48.064;20.624;2023-03-01T04:59:41;9.57;;;5.47;;
57822;SDS011;43650;48.064;20.624;2023-03-01T05:00:42;11.47;;;5.87;;
57822;SDS011;43650;48.064;20.624;2023-03-01T05:01:42;14.90;;;7.80;;
57822;SDS011;43650;48.064;20.624;2023-03-01T05:02:43;8.13;;;4.60;;
57822;SDS011;43650;48.064;20.624;2023-03-01T05:03:43;12.17;;;4.70;;
57822;SDS011;43650;48.064;20.624;2023-03-01T05:04:45;8.32;;;4.55;;
57822;SDS011;43650;48.064;20.624;2023-03-01T05:05:46;10.43;;;5.33;;
57822;SDS011;43650;48.064;20.624;2023-03-01T05:06:48;8.85;;;4.93;;
57822;SDS011;43650;48.064;20.624;2023-03-01T05:07:48;8.95;;;5.07;;
57822;SDS011;43650;48.064;20.624;2023-03-01T05:08:49;18.33;;;6.00;;
57822;SDS011;43650;48.064;20.624;2023-03-01T05:09:49;10.80;;;5.77;;
57822;SDS011;43650;48.064;20.624;2023-03-01T05:10:51;10.77;;;5.47;;
57822;SDS011;43650;48.064;20.624;2023-03-01T05:11:52;10.18;;;5.00;;
57822;SDS011;43650;48.064;20.624;2023-03-01T05:12:53;11.87;;;5.47;;
57822;SDS011;43650;48.064;20.624;2023-03-01T05:13:53;16.80;;;5.75;;
57822;SDS011;43650;48.064;20.624;2023-03-01T05:14:54;11.88;;;5.37;;
57822;SDS011;43650;48.064;20.624;2023-03-01T05:15:56;20.10;;;6.70;;
57822;SDS011;43650;48.064;20.624;2023-03-01T05:17:00;10.75;;;5.68;;
57822;SDS011;43650;48.064;20.624;2023-03-01T05:18:03;11.20;;;5.72;;
57822;SDS011;43650;48.064;20.624;2023-03-01T05:19:04;8.93;;;4.85;;
57822;SDS011;43650;48.064;20.624;2023-03-01T05:20:11;13.70;;;7.40;;
57822;SDS011;43650;48.064;20.624;2023-03-01T05:21:12;12.37;;;6.28;;
57822;SDS011;43650;48.064;20.624;2023-03-01T05:22:15;16.27;;;5.22;;
57822;SDS011;43650;48.064;20.624;2023-03-01T05:23:16;12.82;;;5.95;;
57822;SDS011;43650;48.064;20.624;2023-03-01T05:24:16;11.30;;;5.40;;
57822;SDS011;43650;48.064;20.624;2023-03-01T05:25:17;128.67;;;13.63;;
57822;SDS011;43650;48.064;20.624;2023-03-01T05:26:18;10.13;;;4.87;;
57822;SDS011;43650;48.064;20.624;2023-03-01T05:27:21;12.93;;;4.53;;
57822;SDS011;43650;48.064;20.624;2023-03-01T05:28:22;10.23;;;5.43;;
57822;SDS011;43650;48.064;20.624;2023-03-01T05:29:23;8.97;;;4.27;;
57822;SDS011;43650;48.064;20.624;2023-03-01T05:30:27;14.23;;;4.40;;
57822;SDS011;43650;48.064;20.624;2023-03-01T05:31:27;13.07;;;4.63;;
57822;SDS011;43650;48.064;20.624;2023-03-01T05:32:28;7.12;;;4.40;;
57822;SDS011;43650;48.064;20.624;2023-03-01T05:33:32;8.38;;;4.45;;
57822;SDS011;43650;48.064;20.624;2023-03-01T05:34:33;6.83;;;3.43;;
57822;SDS011;43650;48.064;20.624;2023-03-01T05:35:35;10.85;;;5.15;;
57822;SDS011;43650;48.064;20.624;2023-03-01T05:36:36;8.93;;;4.47;;
57822;SDS011;43650;48.064;20.624;2023-03-01T05:38:42;12.43;;;6.30;;
57822;SDS011;43650;48.064;20.624;2023-03-01T05:39:42;71.23;;;23.97;;
57822;SDS011;43650;48.064;20.624;2023-03-01T05:40:43;12.90;;;6.07;;
57822;SDS011;43650;48.064;20.624;2023-03-01T05:41:45;6.25;;;3.42;;
57822;SDS011;43650;48.064;20.624;2023-03-01T05:42:46;8.37;;;3.67;;
57822;SDS011;43650;48.064;20.624;2023-03-01T05:43:56;10.30;;;4.32;;
57822;SDS011;43650;48.064;20.624;2023-03-01T05:44:57;16.37;;;7.40;;
57822;SDS011;43650;48.064;20.624;2023-03-01T05:45:57;40.43;;;19.13;;
57822;SDS011;43650;48.064;20.624;2023-03-01T05:46:58;27.67;;;14.73;;
57822;SDS011;43650;48.064;20.624;2023-03-01T05:47:59;9.87;;;5.20;;
57822;SDS011;43650;48.064;20.624;2023-03-01T05:49:00;16.90;;;8.70;;
57822;SDS011;43650;48.064;20.624;2023-03-01T05:50:00;15.57;;;8.30;;
57822;SDS011;43650;48.064;20.624;2023-03-01T05:51:01;9.00;;;5.15;;
57822;SDS011;43650;48.064;20.624;2023-03-01T05:52:01;9.07;;;4.47;;
57822;SDS011;43650;48.064;20.624;2023-03-01T05:54:02;13.70;;;4.47;;
57822;SDS011;43650;48.064;20.624;2023-03-01T05:55:06;9.18;;;4.05;;
57822;SDS011;43650;48.064;20.624;2023-03-01T05:56:06;7.65;;;3.97;;
57822;SDS011;43650;48.064;20.624;2023-03-01T05:57:07;10.30;;;4.80;;
57822;SDS011;43650;48.064;20.624;2023-03-01T05:58:09;9.83;;;5.23;;
57822;SDS011;43650;48.064;20.624;2023-03-01T05:59:11;8.75;;;4.75;;
57822;SDS011;43650;48.064;20.624;2023-03-01T06:00:12;12.20;;;5.83;;
57822;SDS011;43650;48.064;20.624;2023-03-01T06:01:14;10.52;;;5.55;;
57822;SDS011;43650;48.064;20.624;2023-03-01T06:02:14;14.60;;;6.10;;
57822;SDS011;43650;48.064;20.624;2023-03-01T06:03:16;13.50;;;6.70;;
57822;SDS011;43650;48.064;20.624;2023-03-01T06:04:17;8.70;;;5.00;;
57822;SDS011;43650;48.064;20.624;2023-03-01T06:05:18;12.17;;;6.70;;
57822;SDS011;43650;48.064;20.624;2023-03-01T06:06:18;13.40;;;8.23;;
57822;SDS011;43650;48.064;20.624;2023-03-01T06:07:19;15.83;;;8.07;;
57822;SDS011;43650;48.064;20.624;2023-03-01T06:08:19;15.90;;;7.43;;
57822;SDS011;43650;48.064;20.624;2023-03-01T06:09:21;13.60;;;7.03;;
57822;SDS011;43650;48.064;20.624;2023-03-01T06:10:21;15.93;;;7.90;;
57822;SDS011;43650;48.064;20.624;2023-03-01T06:11:22;16.83;;;8.43;;
57822;SDS011;43650;48.064;20.624;2023-03-01T06:12:22;19.33;;;10.00;;
57822;SDS011;43650;48.064;20.624;2023-03-01T06:13:23;27.37;;;6.03;;
57822;SDS011;43650;48.064;20.624;2023-03-01T06:14:24;13.90;;;4.82;;
57822;SDS011;43650;48.064;20.624;2023-03-01T06:15:25;5.93;;;3.23;;
57822;SDS011;43650;48.064;20.624;2023-03-01T06:16:25;7.10;;;4.15;;
57822;SDS011;43650;48.064;20.624;2023-03-01T06:17:28;11.30;;;3.93;;
57822;SDS011;43650;48.064;20.624;2023-03-01T06:18:29;9.15;;;3.87;;
57822;SDS011;43650;48.064;20.624;2023-03-01T06:19:30;7.80;;;4.63;;
57822;SDS011;43650;48.064;20.624;2023-03-01T06:20:30;9.30;;;4.40;;